Time;durP1;ratioP1;P1;durP2;ratioP2;P2;SDS_P1;SDS_P2;PMS_P1;PMS_P2;Temp;Humidity;BMP_temperature;BMP_pressure;BME280_temperature;BME280_humidity;BME280_pressure;Samples;Min_cycle;Max_cycle;Signal;HPM_P1;HPM_P2
2023/09/23 00:02:11;;;;;;;0.20;0.20;;;12.20;99.90;;;;;;5038456;28;20048;-67
2023/09/23 00:04:37;;;;;;;0.90;0.45;;;12.20;99.90;;;;;;5034110;28;20044;-67
2023/09/23 00:07:02;;;;;;;0.30;0.30;;;12.20;99.90;;;;;;5041115;28;20511;-66
2023/09/23 00:09:28;;;;;;;0.20;0.10;;;12.10;99.90;;;;;;5039157;28;20093;-67
2023/09/23 00:11:54;;;;;;;0.10;0.10;;;12.10;99.90;;;;;;5040608;28;20051;-67
2023/09/23 00:14:20;;;;;;;0.32;0.32;;;12.00;99.90;;;;;;5037704;28;20408;-66
2023/09/23 00:16:47;;;;;;;0.63;0.63;;;11.90;99.90;;;;;;5039428;28;20052;-66
2023/09/23 00:19:13;;;;;;;0.10;0.10;;;11.90;99.90;;;;;;5042149;28;20048;-67
2023/09/23 00:21:39;;;;;;;0.25;0.25;;;11.90;99.90;;;;;;5047053;28;20512;-66
2023/09/23 00:24:05;;;;;;;0.10;0.10;;;11.80;99.90;;;;;;5048479;28;20123;-67
2023/09/23 00:26:32;;;;;;;0.20;0.20;;;11.80;99.90;;;;;;5080028;28;20159;-66
2023/09/23 00:28:58;;;;;;;0.10;0.10;;;11.70;99.90;;;;;;5033132;28;20052;-66
2023/09/23 00:31:24;;;;;;;0.10;0.10;;;11.70;99.90;;;;;;5038598;28;20475;-66
2023/09/23 00:33:50;;;;;;;0.00;0.00;;;11.80;99.90;;;;;;5038458;28;20045;-67
2023/09/23 00:36:15;;;;;;;0.03;0.03;;;11.70;99.90;;;;;;5067934;28;20486;-66
2023/09/23 00:38:41;;;;;;;0.10;0.10;;;11.70;99.90;;;;;;5035728;28;20679;-67
2023/09/23 00:41:08;;;;;;;0.52;0.10;;;11.70;99.90;;;;;;5072731;28;20567;-67
2023/09/23 00:43:34;;;;;;;0.13;0.13;;;11.70;99.90;;;;;;5038178;28;20044;-66
2023/09/23 00:46:03;;;;;;;0.10;0.10;;;11.70;99.90;;;;;;5037648;28;20492;-66
2023/09/23 00:48:33;;;;;;;0.80;0.20;;;11.80;99.90;;;;;;5038556;28;20095;-66
2023/09/23 00:50:59;;;;;;;0.65;0.65;;;11.80;99.90;;;;;;5039572;28;20484;-66
2023/09/23 00:53:25;;;;;;;0.10;0.10;;;11.80;99.90;;;;;;5037938;28;20032;-66
2023/09/23 00:55:55;;;;;;;0.32;0.32;;;11.80;99.90;;;;;;5070239;28;20036;-66
2023/09/23 00:58:22;;;;;;;0.10;0.10;;;11.80;99.90;;;;;;5038874;28;20032;-66
2023/09/23 01:00:49;;;;;;;0.30;0.30;;;11.90;99.90;;;;;;5039135;28;20044;-66
2023/09/23 01:03:15;;;;;;;0.22;0.22;;;11.90;99.90;;;;;;5036388;28;20403;-66
2023/09/23 01:05:43;;;;;;;0.10;0.10;;;11.90;99.90;;;;;;5036164;28;20040;-66
2023/09/23 01:08:19;;;;;;;0.90;0.20;;;12.00;99.90;;;;;;5042586;28;20047;-66
2023/09/23 01:10:47;;;;;;;0.10;0.10;;;11.90;99.90;;;;;;5045044;28;20052;-66
2023/09/23 01:13:12;;;;;;;0.10;0.10;;;12.00;99.90;;;;;;5068572;28;20083;-66
2023/09/23 01:15:40;;;;;;;0.20;0.10;;;12.00;99.90;;;;;;5036917;28;20431;-65
2023/09/23 01:18:14;;;;;;;0.45;0.45;;;12.00;99.90;;;;;;5067744;28;20043;-66
2023/09/23 01:20:51;;;;;;;0.28;0.28;;;12.00;99.90;;;;;;5069867;28;20045;-66
2023/09/23 01:23:17;;;;;;;0.10;0.10;;;12.00;99.90;;;;;;5072575;28;20052;-66
2023/09/23 01:25:43;;;;;;;3.75;0.55;;;12.00;99.90;;;;;;5035189;28;20040;-67
2023/09/23 01:28:11;;;;;;;1.10;0.38;;;12.00;99.90;;;;;;5033373;28;20059;-66
2023/09/23 01:30:37;;;;;;;0.57;0.40;;;12.00;99.90;;;;;;5043744;28;20039;-65
2023/09/23 01:33:07;;;;;;;3.53;0.45;;;12.00;99.90;;;;;;5047756;28;20115;-65
2023/09/23 01:35:33;;;;;;;0.98;0.38;;;12.10;99.90;;;;;;5049899;28;20044;-65
2023/09/23 01:37:59;;;;;;;0.50;0.50;;;12.00;99.90;;;;;;5031341;28;20052;-65
2023/09/23 01:40:29;;;;;;;0.10;0.10;;;12.00;99.90;;;;;;5029896;28;20047;-65
2023/09/23 01:42:55;;;;;;;0.10;0.10;;;12.00;99.90;;;;;;5050734;28;20045;-66
2023/09/23 01:45:22;;;;;;;0.10;0.10;;;11.90;99.90;;;;;;5045664;28;20392;-65
2023/09/23 01:47:49;;;;;;;0.38;0.38;;;11.90;99.90;;;;;;5049578;28;20037;-65
2023/09/23 01:50:17;;;;;;;0.20;0.20;;;11.90;99.90;;;;;;5045639;28;20045;-66
2023/09/23 01:52:44;;;;;;;0.20;0.20;;;11.80;99.90;;;;;;5051142;28;20052;-66
2023/09/23 01:55:12;;;;;;;0.30;0.30;;;11.80;99.90;;;;;;5048685;28;20040;-65
2023/09/23 01:57:39;;;;;;;0.10;0.10;;;11.70;99.90;;;;;;5048755;28;20046;-65
2023/09/23 02:00:06;;;;;;;0.22;0.20;;;11.70;99.90;;;;;;5052774;28;20086;-66
2023/09/23 02:02:33;;;;;;;0.82;0.75;;;11.70;99.90;;;;;;5047988;28;20132;-66
2023/09/23 02:04:59;;;;;;;0.10;0.10;;;11.60;99.90;;;;;;5042374;28;20044;-65
2023/09/23 02:07:26;;;;;;;0.68;0.40;;;11.60;99.90;;;;;;5035830;28;20124;-66
2023/09/23 02:09:52;;;;;;;1.02;0.22;;;11.50;99.90;;;;;;5022709;28;20117;-65
2023/09/23 02:12:17;;;;;;;0.13;0.13;;;11.50;99.90;;;;;;5055496;28;20049;-65
2023/09/23 02:14:43;;;;;;;0.15;0.15;;;11.50;99.90;;;;;;5045908;28;20483;-66
2023/09/23 02:17:09;;;;;;;0.10;0.10;;;11.50;99.90;;;;;;5046503;28;20071;-65
2023/09/23 02:19:35;;;;;;;0.10;0.10;;;11.40;99.90;;;;;;5049601;28;20048;-66
2023/09/23 02:22:05;;;;;;;0.22;0.22;;;11.40;99.90;;;;;;5088201;28;20041;-66
2023/09/23 02:24:36;;;;;;;0.10;0.10;;;11.40;99.90;;;;;;5042370;28;20036;-66
2023/09/23 02:27:03;;;;;;;0.10;0.10;;;11.40;99.90;;;;;;5080369;28;20048;-66
2023/09/23 02:29:30;;;;;;;0.10;0.10;;;11.40;99.90;;;;;;5043387;28;20123;-66
2023/09/23 02:31:56;;;;;;;1.05;0.43;;;11.40;99.90;;;;;;5041285;28;20041;-65
2023/09/23 02:34:22;;;;;;;0.32;0.28;;;11.40;99.90;;;;;;5052562;28;20139;-66
2023/09/23 02:36:51;;;;;;;0.25;0.25;;;11.40;99.90;;;;;;5053760;28;20535;-66
2023/09/23 02:39:19;;;;;;;0.20;0.20;;;11.30;99.90;;;;;;5067211;28;20399;-65
2023/09/23 02:41:46;;;;;;;0.40;0.30;;;11.30;99.90;;;;;;5052522;28;20059;-65
2023/09/23 02:44:19;;;;;;;0.80;0.80;;;11.30;99.90;;;;;;5040694;28;20044;-66
2023/09/23 02:46:54;;;;;;;2.72;0.60;;;11.30;99.90;;;;;;5076524;28;20094;-65
2023/09/23 02:49:20;;;;;;;0.35;0.15;;;11.30;99.90;;;;;;5045511;28;20032;-66
2023/09/23 02:51:48;;;;;;;0.10;0.10;;;11.20;99.90;;;;;;5053289;28;20044;-66
2023/09/23 02:54:17;;;;;;;0.35;0.35;;;11.20;99.90;;;;;;5052750;28;20510;-66
2023/09/23 02:56:50;;;;;;;0.65;0.25;;;11.20;99.90;;;;;;5059143;28;20048;-66
2023/09/23 02:59:21;;;;;;;;;;;11.20;99.90;;;;;;5044962;28;20044;-66
2023/09/23 03:01:51;;;;;;;0.10;0.10;;;11.10;99.90;;;;;;5050816;28;20035;-65
2023/09/23 03:04:19;;;;;;;21.83;0.45;;;11.10;99.90;;;;;;5045027;28;20056;-65
2023/09/23 03:06:49;;;;;;;0.28;0.20;;;11.10;99.90;;;;;;5033454;28;20051;-65
2023/09/23 03:09:28;;;;;;;2.67;2.15;;;11.00;99.90;;;;;;5049902;28;20036;-65
2023/09/23 03:11:55;;;;;;;0.30;0.30;;;11.00;99.90;;;;;;5084115;28;20067;-65
2023/09/23 03:14:28;;;;;;;0.20;0.20;;;10.90;99.90;;;;;;5046170;28;20052;-65
2023/09/23 03:16:57;;;;;;;0.95;0.20;;;11.00;99.90;;;;;;5036597;28;20040;-66
2023/09/23 03:19:26;;;;;;;0.90;0.38;;;10.90;99.90;;;;;;5068797;28;20373;-65
2023/09/23 03:21:57;;;;;;;1.55;0.40;;;10.90;99.90;;;;;;5075934;28;20052;-65
2023/09/23 03:24:25;;;;;;;1.08;0.40;;;10.90;99.90;;;;;;5071065;28;20527;-66
2023/09/23 03:26:55;;;;;;;0.90;0.45;;;10.90;99.90;;;;;;5069284;28;20043;-66
2023/09/23 03:29:22;;;;;;;0.80;0.55;;;10.90;99.90;;;;;;5022435;28;20036;-66
2023/09/23 03:31:48;;;;;;;0.20;0.20;;;10.80;99.90;;;;;;5040778;28;20041;-66
2023/09/23 03:34:14;;;;;;;0.20;0.20;;;10.80;99.90;;;;;;5043052;28;20037;-66
2023/09/23 03:36:41;;;;;;;0.30;0.30;;;10.80;99.90;;;;;;5037528;28;20509;-66
2023/09/23 03:39:09;;;;;;;0.40;0.40;;;10.80;99.90;;;;;;5038510;28;20079;-66
2023/09/23 03:41:37;;;;;;;0.13;0.13;;;10.80;99.90;;;;;;5040833;28;20037;-66
2023/09/23 03:44:07;;;;;;;0.40;0.17;;;10.80;99.90;;;;;;5067447;28;20131;-66
2023/09/23 03:46:33;;;;;;;0.38;0.35;;;10.80;99.90;;;;;;5073011;28;20041;-66
2023/09/23 03:49:00;;;;;;;0.20;0.20;;;10.80;99.90;;;;;;5038230;28;20040;-65
2023/09/23 03:51:26;;;;;;;0.28;0.28;;;10.80;99.90;;;;;;5059963;28;20044;-65
2023/09/23 03:53:51;;;;;;;0.63;0.57;;;10.80;99.90;;;;;;5035986;28;20471;-66
2023/09/23 03:56:24;;;;;;;0.77;0.68;;;10.80;99.90;;;;;;5035887;28;20131;-66
2023/09/23 03:58:53;;;;;;;1.58;0.20;;;10.80;99.90;;;;;;5033228;28;20049;-66
2023/09/23 04:01:19;;;;;;;1.45;0.55;;;10.90;99.90;;;;;;5037456;28;20108;-66
2023/09/23 04:03:45;;;;;;;0.47;0.43;;;10.90;99.90;;;;;;5056210;28;20123;-65
2023/09/23 04:06:11;;;;;;;0.55;0.50;;;10.90;99.90;;;;;;5040720;28;20602;-65
2023/09/23 04:08:37;;;;;;;1.35;0.45;;;10.90;99.90;;;;;;5046748;28;20131;-66
2023/09/23 04:11:07;;;;;;;0.60;0.20;;;10.90;99.90;;;;;;5041459;28;21147;-65
2023/09/23 04:13:33;;;;;;;0.38;0.22;;;10.90;99.90;;;;;;5075959;28;20029;-66
2023/09/23 04:16:00;;;;;;;0.75;0.75;;;10.90;99.90;;;;;;5040260;28;20495;-65
2023/09/23 04:18:27;;;;;;;5.68;0.95;;;10.90;99.90;;;;;;5040566;28;20079;-66
2023/09/23 04:20:53;;;;;;;0.38;0.38;;;10.90;99.90;;;;;;5040562;28;20131;-66
2023/09/23 04:23:19;;;;;;;0.75;0.47;;;10.80;99.90;;;;;;5046802;28;20224;-66
2023/09/23 04:25:45;;;;;;;2.67;0.63;;;10.80;99.90;;;;;;5044216;28;20044;-66
2023/09/23 04:28:10;;;;;;;3.22;1.58;;;10.80;99.90;;;;;;5059399;28;20557;-66
2023/09/23 04:30:36;;;;;;;0.50;0.30;;;10.80;99.90;;;;;;5060189;28;20041;-66
2023/09/23 04:33:02;;;;;;;0.52;0.20;;;10.80;99.90;;;;;;5043147;28;20046;-66
2023/09/23 04:35:29;;;;;;;0.63;0.63;;;10.70;99.90;;;;;;5045038;28;20444;-66
2023/09/23 04:37:55;;;;;;;3.60;0.70;;;10.70;99.90;;;;;;5031450;28;20065;-66
2023/09/23 04:40:20;;;;;;;0.75;0.47;;;10.70;99.90;;;;;;5051386;28;20044;-65
2023/09/23 04:42:48;;;;;;;0.88;0.82;;;10.70;99.90;;;;;;5045546;28;20456;-66
2023/09/23 04:45:14;;;;;;;2.28;0.88;;;10.70;99.90;;;;;;5042150;28;20102;-66
2023/09/23 04:47:40;;;;;;;0.65;0.60;;;10.60;99.90;;;;;;5041291;28;20086;-66
2023/09/23 04:50:09;;;;;;;1.60;0.65;;;10.60;99.90;;;;;;5050818;28;20044;-66
2023/09/23 04:52:35;;;;;;;0.85;0.82;;;10.60;99.90;;;;;;5066015;28;20103;-66
2023/09/23 04:55:02;;;;;;;0.10;0.10;;;10.60;99.90;;;;;;5049393;28;20083;-66
2023/09/23 04:57:27;;;;;;;1.13;0.50;;;10.60;99.90;;;;;;5051054;28;20047;-66
2023/09/23 04:59:54;;;;;;;1.08;0.75;;;10.60;99.90;;;;;;5049280;28;20353;-66
2023/09/23 05:02:20;;;;;;;1.95;0.73;;;10.60;99.90;;;;;;5044533;28;20131;-66
2023/09/23 05:04:46;;;;;;;1.55;0.50;;;10.60;99.90;;;;;;5047516;28;20498;-66
2023/09/23 05:07:15;;;;;;;2.83;0.82;;;10.50;99.90;;;;;;5044617;28;20040;-66
2023/09/23 05:09:41;;;;;;;0.60;0.60;;;10.50;99.90;;;;;;5045640;28;20062;-66
2023/09/23 05:12:10;;;;;;;0.90;0.40;;;10.60;99.90;;;;;;5045262;28;20139;-66
2023/09/23 05:14:36;;;;;;;2.70;1.25;;;10.60;99.90;;;;;;5049903;28;20098;-66
2023/09/23 05:17:05;;;;;;;0.85;0.85;;;10.50;99.90;;;;;;5049244;28;20037;-66
2023/09/23 05:19:34;;;;;;;1.73;0.85;;;10.60;99.90;;;;;;5046913;28;20404;-66
2023/09/23 05:22:00;;;;;;;0.45;0.40;;;10.60;99.90;;;;;;5050179;28;20072;-66
2023/09/23 05:24:27;;;;;;;1.15;0.63;;;10.60;99.90;;;;;;5045802;28;20506;-66
2023/09/23 05:26:56;;;;;;;1.17;1.05;;;10.70;99.90;;;;;;5066137;28;20044;-66
2023/09/23 05:29:22;;;;;;;4.03;1.45;;;10.70;99.90;;;;;;5039749;28;20048;-66
2023/09/23 05:31:48;;;;;;;3.15;1.00;;;10.70;99.90;;;;;;5047614;28;20059;-66
2023/09/23 05:34:15;;;;;;;0.50;0.43;;;10.70;99.90;;;;;;5047033;28;20491;-66
2023/09/23 05:36:41;;;;;;;2.75;1.38;;;10.70;99.90;;;;;;5048434;28;20048;-66
2023/09/23 05:39:06;;;;;;;2.00;1.05;;;10.70;99.90;;;;;;5056374;28;20512;-65
2023/09/23 05:41:32;;;;;;;1.95;1.08;;;10.80;99.90;;;;;;5049955;28;20307;-65
2023/09/23 05:43:59;;;;;;;2.47;1.08;;;10.70;99.90;;;;;;5054033;28;20043;-66
2023/09/23 05:46:25;;;;;;;1.52;1.35;;;10.70;99.90;;;;;;5041361;28;20087;-66
2023/09/23 05:48:51;;;;;;;3.15;1.08;;;10.80;99.90;;;;;;5046252;28;20541;-66
2023/09/23 05:51:16;;;;;;;2.95;1.10;;;10.80;99.90;;;;;;5065423;28;20072;-65
2023/09/23 05:53:42;;;;;;;3.67;2.83;;;10.70;99.90;;;;;;5047341;28;20037;-66
2023/09/23 05:56:08;;;;;;;2.80;1.10;;;10.70;99.90;;;;;;5038350;28;20058;-65
2023/09/23 05:58:34;;;;;;;1.42;1.33;;;10.80;99.90;;;;;;5051808;28;20044;-66
2023/09/23 06:01:00;;;;;;;2.80;1.15;;;10.80;99.90;;;;;;5044643;28;20537;-66
2023/09/23 06:03:25;;;;;;;4.88;1.33;;;10.90;99.90;;;;;;5050010;28;20558;-66
2023/09/23 06:05:51;;;;;;;1.60;0.95;;;10.90;99.90;;;;;;5051211;28;20511;-66
2023/09/23 06:08:16;;;;;;;4.45;0.57;;;10.90;99.90;;;;;;5052975;28;20260;-66
2023/09/23 06:10:42;;;;;;;1.90;0.95;;;11.00;99.90;;;;;;5052322;28;20051;-66
2023/09/23 06:13:09;;;;;;;3.40;1.20;;;11.00;99.90;;;;;;5051654;28;20478;-65
2023/09/23 06:15:35;;;;;;;5.40;1.75;;;11.10;99.90;;;;;;5041827;28;20068;-66
2023/09/23 06:18:01;;;;;;;4.03;1.35;;;11.20;99.90;;;;;;5048807;28;20471;-66
2023/09/23 06:20:26;;;;;;;2.58;1.40;;;11.20;99.90;;;;;;5053222;28;20047;-66
2023/09/23 06:22:52;;;;;;;4.25;1.17;;;11.30;99.90;;;;;;5050101;28;20064;-66
2023/09/23 06:25:17;;;;;;;8.00;4.00;;;11.40;99.90;;;;;;5044955;28;20049;-66
2023/09/23 06:27:43;;;;;;;6.15;1.20;;;11.50;99.90;;;;;;5070825;28;20094;-66
2023/09/23 06:30:09;;;;;;;2.83;1.45;;;11.60;99.90;;;;;;5050780;28;20453;-66
2023/09/23 06:32:35;;;;;;;4.20;1.70;;;11.60;99.90;;;;;;5048598;28;20040;-66
2023/09/23 06:35:02;;;;;;;3.67;1.13;;;11.70;99.90;;;;;;5054118;28;20469;-66
2023/09/23 06:37:27;;;;;;;5.82;1.58;;;11.80;99.90;;;;;;5053044;28;20039;-66
2023/09/23 06:39:53;;;;;;;2.63;1.67;;;11.90;99.90;;;;;;5052122;28;20029;-66
2023/09/23 06:42:19;;;;;;;2.20;2.00;;;12.00;99.90;;;;;;5034416;28;20380;-66
2023/09/23 06:44:45;;;;;;;1.63;0.80;;;12.10;99.90;;;;;;5051217;28;20036;-66
2023/09/23 06:47:11;;;;;;;2.13;1.30;;;12.10;99.90;;;;;;5049986;28;20036;-66
2023/09/23 06:49:37;;;;;;;2.05;1.92;;;12.10;99.90;;;;;;5033783;28;20118;-66
2023/09/23 06:52:02;;;;;;;1.98;1.42;;;12.20;99.90;;;;;;5082607;28;20037;-66
2023/09/23 06:54:28;;;;;;;1.55;1.02;;;12.10;99.90;;;;;;5052843;28;20041;-66
2023/09/23 06:56:57;;;;;;;5.72;2.33;;;12.20;99.90;;;;;;5033914;28;20040;-67
2023/09/23 06:59:22;;;;;;;3.38;2.42;;;12.20;99.90;;;;;;5036022;28;20643;-66
2023/09/23 07:01:48;;;;;;;2.83;0.82;;;12.20;99.90;;;;;;5048905;28;20132;-67
2023/09/23 07:04:14;;;;;;;4.85;0.98;;;12.30;99.90;;;;;;5051386;28;20383;-67
2023/09/23 07:06:39;;;;;;;6.10;1.13;;;12.30;99.90;;;;;;5043477;28;20400;-67
2023/09/23 07:09:05;;;;;;;4.22;2.47;;;12.30;99.90;;;;;;5052743;28;20592;-66
2023/09/23 07:11:32;;;;;;;4.90;1.75;;;12.30;99.90;;;;;;5050568;28;20491;-67
2023/09/23 07:13:58;;;;;;;2.40;1.88;;;12.30;99.90;;;;;;5033049;28;20040;-68
2023/09/23 07:16:26;;;;;;;3.00;2.05;;;12.30;99.90;;;;;;5033275;28;20037;-68
2023/09/23 07:18:52;;;;;;;4.22;1.25;;;12.30;99.90;;;;;;5046970;28;20060;-67
2023/09/23 07:21:17;;;;;;;3.95;1.80;;;12.30;99.90;;;;;;5035151;28;20040;-68
2023/09/23 07:23:43;;;;;;;2.83;2.58;;;12.30;99.90;;;;;;5051326;28;20037;-67
2023/09/23 07:26:08;;;;;;;2.00;0.95;;;12.20;99.90;;;;;;5048170;28;20044;-68
2023/09/23 07:28:34;;;;;;;2.38;1.58;;;12.30;99.90;;;;;;5035765;28;20340;-68
2023/09/23 07:31:00;;;;;;;4.18;1.15;;;12.30;99.90;;;;;;5033097;28;20049;-67
2023/09/23 07:33:26;;;;;;;4.15;2.13;;;12.30;99.90;;;;;;5074242;28;20068;-68
2023/09/23 07:35:53;;;;;;;1.23;0.73;;;12.40;99.90;;;;;;5052260;28;20037;-68
2023/09/23 07:38:18;;;;;;;2.22;1.13;;;12.40;99.90;;;;;;5041641;28;20051;-68
2023/09/23 07:40:44;;;;;;;2.90;1.63;;;12.50;99.90;;;;;;5052056;28;20490;-68
2023/09/23 07:43:09;;;;;;;2.90;1.25;;;12.50;99.90;;;;;;5044315;28;20039;-68
2023/09/23 07:45:35;;;;;;;1.10;0.82;;;12.70;99.90;;;;;;5047908;28;20036;-68
2023/09/23 07:48:00;;;;;;;2.97;1.77;;;12.80;99.90;;;;;;5045717;28;20052;-68
2023/09/23 07:50:26;;;;;;;6.10;0.90;;;13.00;99.90;;;;;;5046484;28;20036;-67
2023/09/23 07:52:52;;;;;;;2.92;1.83;;;13.00;99.90;;;;;;5048977;28;20443;-68
2023/09/23 07:55:17;;;;;;;2.15;1.85;;;13.00;99.90;;;;;;5051152;28;20128;-68
2023/09/23 07:57:43;;;;;;;2.33;1.75;;;13.00;99.90;;;;;;5027420;28;20087;-68
2023/09/23 08:00:09;;;;;;;2.10;0.90;;;13.00;99.90;;;;;;5051411;28;20051;-68
2023/09/23 08:02:35;;;;;;;4.13;1.83;;;13.10;99.90;;;;;;5051528;28;20567;-67
2023/09/23 08:05:05;;;;;;;2.50;1.40;;;13.20;99.90;;;;;;5026953;28;20045;-67
2023/09/23 08:07:31;;;;;;;1.63;1.25;;;13.30;99.90;;;;;;5041004;28;20047;-66
2023/09/23 08:09:57;;;;;;;2.03;0.93;;;13.30;99.90;;;;;;5045191;28;20081;-66
2023/09/23 08:12:23;;;;;;;2.58;1.20;;;13.30;99.90;;;;;;5042958;28;20036;-65
2023/09/23 08:14:50;;;;;;;4.07;1.50;;;13.40;99.90;;;;;;5037231;28;20316;-66
2023/09/23 08:17:17;;;;;;;1.40;1.15;;;13.50;99.90;;;;;;5051808;28;20048;-67
2023/09/23 08:19:43;;;;;;;2.50;1.67;;;13.60;99.90;;;;;;5035397;28;20040;-66
2023/09/23 08:22:09;;;;;;;1.52;1.27;;;13.60;99.90;;;;;;5048990;28;20044;-65
2023/09/23 08:24:35;;;;;;;4.63;2.03;;;13.70;99.90;;;;;;5046558;28;20514;-68
2023/09/23 08:27:05;;;;;;;4.60;2.65;;;13.70;99.90;;;;;;5040196;28;20411;-67
2023/09/23 08:29:30;;;;;;;7.88;2.17;;;13.70;99.90;;;;;;5039823;28;20521;-68
2023/09/23 08:31:56;;;;;;;2.08;1.63;;;13.70;99.90;;;;;;5053023;28;20048;-67
2023/09/23 08:34:24;;;;;;;3.33;0.98;;;13.80;99.90;;;;;;5035732;28;20073;-69
2023/09/23 08:36:50;;;;;;;1.33;1.17;;;13.90;99.90;;;;;;5032536;28;20407;-67
2023/09/23 08:39:16;;;;;;;1.52;1.42;;;13.90;99.90;;;;;;5031967;28;20047;-68
2023/09/23 08:41:51;;;;;;;3.05;2.63;;;14.00;99.90;;;;;;5032528;28;20128;-67
2023/09/23 08:44:21;;;;;;;2.13;1.25;;;14.20;99.90;;;;;;5035814;28;20070;-67
2023/09/23 08:46:50;;;;;;;2.03;1.90;;;14.30;99.90;;;;;;5033165;28;20073;-67
2023/09/23 08:49:17;;;;;;;2.90;1.95;;;14.40;99.90;;;;;;5043074;28;20524;-68
2023/09/23 08:51:45;;;;;;;3.60;0.70;;;14.50;99.90;;;;;;5051988;28;20045;-67
2023/09/23 08:54:12;;;;;;;1.77;1.27;;;14.60;99.90;;;;;;5045935;28;20029;-67
2023/09/23 08:56:38;;;;;;;2.72;2.08;;;14.70;99.90;;;;;;5032532;28;20462;-67
2023/09/23 08:59:03;;;;;;;1.73;0.85;;;14.60;99.90;;;;;;5040167;28;20119;-67
2023/09/23 09:01:29;;;;;;;4.88;2.40;;;14.60;99.90;;;;;;5044318;28;20522;-67
2023/09/23 09:03:54;;;;;;;1.55;1.35;;;14.60;99.90;;;;;;5043372;28;20044;-67
2023/09/23 09:06:27;;;;;;;1.48;1.38;;;14.60;99.90;;;;;;5052201;28;20036;-67
2023/09/23 09:08:53;;;;;;;1.67;0.88;;;14.50;99.90;;;;;;5040773;28;20120;-66
2023/09/23 09:11:23;;;;;;;1.65;0.90;;;14.60;99.90;;;;;;5043674;28;20598;-66
2023/09/23 09:13:49;;;;;;;0.50;0.50;;;14.70;99.90;;;;;;5043224;28;20391;-67
2023/09/23 09:16:16;;;;;;;1.83;0.85;;;14.80;99.90;;;;;;5046434;28;20384;-68
2023/09/23 09:18:42;;;;;;;1.52;1.42;;;15.00;99.90;;;;;;5042682;28;20059;-67
2023/09/23 09:21:08;;;;;;;1.75;1.08;;;15.00;99.90;;;;;;5045659;28;20041;-68
2023/09/23 09:23:36;;;;;;;1.45;1.33;;;15.00;99.90;;;;;;5047449;28;20045;-66
2023/09/23 09:26:02;;;;;;;1.35;0.93;;;15.00;99.90;;;;;;5034598;28;20040;-68
2023/09/23 09:28:30;;;;;;;1.50;1.40;;;15.00;99.90;;;;;;5050604;28;20513;-67
2023/09/23 09:30:57;;;;;;;1.98;1.67;;;15.00;99.90;;;;;;5033399;28;20070;-68
2023/09/23 09:33:27;;;;;;;1.27;0.90;;;15.10;99.90;;;;;;5052218;28;20033;-67
2023/09/23 09:35:56;;;;;;;0.52;0.52;;;15.30;99.90;;;;;;5038257;28;20174;-66
2023/09/23 09:38:25;;;;;;;0.30;0.30;;;15.40;99.90;;;;;;5050628;28;20068;-66
2023/09/23 09:40:56;;;;;;;1.38;0.70;;;15.50;99.90;;;;;;5055471;28;20036;-66
2023/09/23 09:43:23;;;;;;;1.95;0.85;;;15.50;99.90;;;;;;5051983;28;20045;-68
2023/09/23 09:45:49;;;;;;;2.30;2.05;;;15.40;99.90;;;;;;5047055;28;20044;-67
2023/09/23 09:48:15;;;;;;;1.90;1.75;;;15.30;99.90;;;;;;5049485;28;20049;-67
2023/09/23 09:50:43;;;;;;;1.63;1.33;;;15.20;99.90;;;;;;5047219;28;20029;-66
2023/09/23 09:53:09;;;;;;;1.95;1.67;;;15.00;99.90;;;;;;5048853;28;20483;-67
2023/09/23 09:55:35;;;;;;;2.50;1.38;;;14.90;99.90;;;;;;5046201;28;20043;-66
2023/09/23 09:58:03;;;;;;;2.10;1.65;;;14.80;99.90;;;;;;5051062;28;20040;-66
2023/09/23 10:00:33;;;;;;;1.45;0.77;;;14.90;99.90;;;;;;5049719;28;20510;-67
2023/09/23 10:03:01;;;;;;;0.85;0.85;;;15.00;99.90;;;;;;5047832;28;20044;-67
2023/09/23 10:05:41;;;;;;;1.08;0.90;;;15.30;99.90;;;;;;5033389;28;20056;-68
2023/09/23 10:08:15;;;;;;;1.75;1.08;;;15.50;99.90;;;;;;5034981;28;20045;-66
2023/09/23 10:10:49;;;;;;;1.30;1.10;;;15.70;99.90;;;;;;5038803;28;20044;-67
2023/09/23 10:13:22;;;;;;;1.90;0.98;;;16.00;99.90;;;;;;5043880;28;20048;-66
2023/09/23 10:15:47;;;;;;;0.57;0.43;;;16.20;99.90;;;;;;5053104;28;20427;-66
2023/09/23 10:18:18;;;;;;;0.68;0.68;;;16.20;99.90;;;;;;5053002;28;20116;-66
2023/09/23 10:20:54;;;;;;;0.63;0.63;;;16.30;99.90;;;;;;5043785;28;20025;-68
2023/09/23 10:23:21;;;;;;;0.98;0.93;;;16.30;99.90;;;;;;5039594;28;20032;-66
2023/09/23 10:25:50;;;;;;;1.23;1.15;;;16.20;99.90;;;;;;5085199;28;20064;-67
2023/09/23 10:28:26;;;;;;;1.23;0.95;;;16.40;99.90;;;;;;5045866;28;20119;-66
2023/09/23 10:31:06;;;;;;;0.65;0.65;;;16.40;99.90;;;;;;5048078;28;20024;-66
2023/09/23 10:33:34;;;;;;;1.15;0.80;;;16.30;99.90;;;;;;5069195;28;20041;-66
2023/09/23 10:36:01;;;;;;;0.68;0.68;;;16.40;99.90;;;;;;5071154;28;20040;-67
2023/09/23 10:38:31;;;;;;;0.68;0.68;;;16.40;99.90;;;;;;5046571;28;20056;-68
2023/09/23 10:40:57;;;;;;;1.17;1.02;;;16.50;99.90;;;;;;5076934;28;20051;-67
2023/09/23 10:43:23;;;;;;;1.65;1.10;;;16.60;99.90;;;;;;5045869;28;20090;-67
2023/09/23 10:45:53;;;;;;;1.60;0.82;;;16.60;99.90;;;;;;5043385;28;20454;-66
2023/09/23 10:48:19;;;;;;;0.60;0.60;;;16.70;99.90;;;;;;5041324;28;20537;-67
2023/09/23 10:50:45;;;;;;;1.65;0.50;;;16.60;99.90;;;;;;5049812;28;20127;-66
2023/09/23 10:53:14;;;;;;;2.10;1.50;;;16.60;99.90;;;;;;5046549;28;20499;-68
2023/09/23 10:55:40;;;;;;;3.47;1.25;;;16.60;99.90;;;;;;5041403;28;20451;-67
2023/09/23 10:58:08;;;;;;;0.40;0.40;;;16.70;99.90;;;;;;5038640;28;20135;-67
2023/09/23 11:00:36;;;;;;;1.00;0.68;;;16.80;99.90;;;;;;5036969;28;20040;-67
2023/09/23 11:03:19;;;;;;;0.90;0.90;;;16.90;99.90;;;;;;5068475;28;20523;-66
2023/09/23 11:05:46;;;;;;;0.50;0.50;;;16.70;99.90;;;;;;5046960;28;20051;-67
2023/09/23 11:08:14;;;;;;;2.85;0.70;;;16.80;99.90;;;;;;5056448;28;20041;-68
2023/09/23 11:10:41;;;;;;;1.08;0.45;;;16.90;99.90;;;;;;5047534;28;20048;-67
2023/09/23 11:13:08;;;;;;;0.38;0.38;;;16.80;99.90;;;;;;5034527;28;20288;-66
2023/09/23 11:15:39;;;;;;;0.32;0.32;;;16.80;99.90;;;;;;5043999;28;20046;-66
2023/09/23 11:18:16;;;;;;;1.05;0.47;;;16.70;99.90;;;;;;5046322;28;20065;-66
2023/09/23 11:20:43;;;;;;;0.47;0.47;;;16.60;99.90;;;;;;5048527;28;20033;-67
2023/09/23 11:23:10;;;;;;;2.03;0.57;;;16.70;99.90;;;;;;5043637;28;20132;-67
2023/09/23 11:25:53;;;;;;;0.28;0.28;;;16.90;99.90;;;;;;5038506;28;20040;-67
2023/09/23 11:28:22;;;;;;;0.40;0.40;;;17.00;99.90;;;;;;5038015;28;20037;-67
2023/09/23 11:30:49;;;;;;;0.55;0.55;;;17.00;99.90;;;;;;5050424;28;20078;-67
2023/09/23 11:33:15;;;;;;;0.47;0.38;;;17.10;99.90;;;;;;5050747;28;20048;-68
2023/09/23 11:35:42;;;;;;;0.75;0.75;;;17.10;99.90;;;;;;5057197;28;20037;-66
2023/09/23 11:38:09;;;;;;;0.40;0.40;;;17.10;99.90;;;;;;5048039;28;20172;-67
2023/09/23 11:40:36;;;;;;;0.98;0.50;;;17.00;99.90;;;;;;5043594;28;20266;-67
2023/09/23 11:43:02;;;;;;;0.13;0.13;;;17.10;99.90;;;;;;5044209;28;20122;-68
2023/09/23 11:45:28;;;;;;;0.22;0.22;;;17.30;99.90;;;;;;5075533;28;20054;-68
2023/09/23 11:47:56;;;;;;;0.17;0.17;;;17.30;99.90;;;;;;5051202;28;20044;-67
2023/09/23 11:50:23;;;;;;;3.08;1.85;;;17.30;99.90;;;;;;5046745;28;20041;-66
2023/09/23 11:52:49;;;;;;;0.38;0.30;;;17.10;99.90;;;;;;5056810;28;20300;-68
2023/09/23 11:55:16;;;;;;;0.10;0.10;;;17.00;99.90;;;;;;5041821;28;20372;-67
2023/09/23 11:57:42;;;;;;;0.40;0.40;;;16.90;99.90;;;;;;5068132;28;20041;-68
2023/09/23 12:00:10;;;;;;;0.22;0.22;;;16.80;99.90;;;;;;5033673;28;20663;-67
2023/09/23 12:02:40;;;;;;;0.40;0.40;;;16.80;99.90;;;;;;5047431;28;20044;-67
2023/09/23 12:05:07;;;;;;;0.28;0.28;;;16.90;99.90;;;;;;5039792;28;20391;-66
2023/09/23 12:07:32;;;;;;;1.02;0.95;;;17.10;99.90;;;;;;5041229;28;20033;-66
2023/09/23 12:09:58;;;;;;;0.13;0.13;;;17.00;99.90;;;;;;5045631;28;20056;-66
2023/09/23 12:12:24;;;;;;;0.90;0.40;;;17.10;99.90;;;;;;5044663;28;20040;-67
2023/09/23 12:14:50;;;;;;;0.10;0.10;;;17.20;99.90;;;;;;5041728;28;20041;-67
2023/09/23 12:17:16;;;;;;;0.10;0.10;;;17.10;99.90;;;;;;5044354;28;20115;-66
2023/09/23 12:19:45;;;;;;;0.63;0.63;;;17.20;99.90;;;;;;5052885;28;20032;-66
2023/09/23 12:22:12;;;;;;;0.47;0.47;;;17.00;99.90;;;;;;5036765;28;20044;-67
2023/09/23 12:24:38;;;;;;;0.43;0.30;;;16.90;99.90;;;;;;5036767;28;20044;-69
2023/09/23 12:27:04;;;;;;;0.52;0.40;;;16.70;99.90;;;;;;5037627;28;20045;-68
2023/09/23 12:29:30;;;;;;;0.43;0.43;;;16.40;99.90;;;;;;5035001;28;20043;-67
2023/09/23 12:31:55;;;;;;;0.52;0.38;;;16.10;99.90;;;;;;5042578;28;20063;-67
2023/09/23 12:34:21;;;;;;;0.25;0.25;;;15.90;99.90;;;;;;5019124;28;20037;-67
2023/09/23 12:36:47;;;;;;;0.60;0.30;;;15.80;99.90;;;;;;5023326;28;20033;-68
2023/09/23 12:39:15;;;;;;;0.40;0.40;;;16.00;99.90;;;;;;5039355;28;20075;-68
2023/09/23 12:41:41;;;;;;;1.38;0.35;;;16.30;99.90;;;;;;5043655;28;20479;-70
2023/09/23 12:44:07;;;;;;;0.40;0.40;;;16.40;99.90;;;;;;5035995;28;20098;-68
2023/09/23 12:46:32;;;;;;;0.40;0.38;;;16.60;99.90;;;;;;5037599;28;20041;-70
2023/09/23 12:48:58;;;;;;;1.00;0.70;;;16.60;99.90;;;;;;5035484;28;20427;-68